createdAt,value
2023-01-25T00:00:47.089Z,17.07
2023-01-25T00:03:14.674Z,18.87
2023-01-25T00:05:42.215Z,13.67
2023-01-25T00:08:09.717Z,12.27
2023-01-25T00:10:37.245Z,14.53
2023-01-25T00:13:04.828Z,16.50
2023-01-25T00:15:32.380Z,16.87
2023-01-25T00:17:59.897Z,16.33
2023-01-25T00:20:27.551Z,15.87
2023-01-25T00:22:55.103Z,17.63
2023-01-25T00:25:23.398Z,18.03
2023-01-25T00:27:50.959Z,16.77
2023-01-25T00:30:18.498Z,17.97
2023-01-25T00:32:48.807Z,17.80
2023-01-25T00:35:16.273Z,19.77
2023-01-25T00:37:44.612Z,19.27
2023-01-25T00:40:12.142Z,17.30
2023-01-25T00:42:39.712Z,17.77
2023-01-25T00:45:07.633Z,18.40
2023-01-25T00:47:34.886Z,17.73
2023-01-25T00:50:05.848Z,18.67
2023-01-25T00:52:33.391Z,18.00
2023-01-25T00:55:00.965Z,15.33
2023-01-25T00:57:29.259Z,17.80
2023-01-25T00:59:56.824Z,16.70
2023-01-25T01:02:24.350Z,14.90
2023-01-25T01:04:51.959Z,17.63
2023-01-25T01:07:19.466Z,16.97
2023-01-25T01:09:46.991Z,16.70
2023-01-25T01:12:14.583Z,17.40
2023-01-25T01:14:42.909Z,16.53
2023-01-25T01:17:10.433Z,17.17
2023-01-25T01:19:38.006Z,17.10
2023-01-25T01:22:05.539Z,15.67
2023-01-25T01:24:33.837Z,14.20
2023-01-25T01:27:01.385Z,17.13
2023-01-25T01:29:28.921Z,17.67
2023-01-25T01:31:57.312Z,18.53
2023-01-25T01:34:24.797Z,16.37
2023-01-25T01:36:52.334Z,18.93
2023-01-25T01:39:19.862Z,20.97
2023-01-25T01:41:48.191Z,18.10
2023-01-25T01:44:15.728Z,18.40
2023-01-25T01:46:43.252Z,19.57
2023-01-25T01:49:13.277Z,19.53
2023-01-25T01:51:46.750Z,17.87
2023-01-25T01:54:23.201Z,15.90
2023-01-25T01:56:59.680Z,21.15
2023-01-25T01:59:27.215Z,21.05
2023-01-25T02:01:56.204Z,17.27
2023-01-25T02:04:23.787Z,17.70
2023-01-25T02:06:51.283Z,17.77
2023-01-25T02:09:21.025Z,20.53
2023-01-25T02:11:48.580Z,20.13
2023-01-25T02:14:16.156Z,18.43
2023-01-25T02:16:44.444Z,22.97
2023-01-25T02:19:11.991Z,19.70
2023-01-25T02:21:39.529Z,23.33
2023-01-25T02:24:10.098Z,21.07
2023-01-25T02:26:37.593Z,17.97
2023-01-25T02:29:05.898Z,18.60
2023-01-25T02:31:33.573Z,17.83
2023-01-25T02:34:01.023Z,16.87
2023-01-25T02:36:28.547Z,17.07
2023-01-25T02:39:14.711Z,15.77
2023-01-25T02:41:42.225Z,16.67
2023-01-25T02:44:15.657Z,18.53
2023-01-25T02:46:43.993Z,17.37
2023-01-25T02:49:11.545Z,16.23
2023-01-25T02:51:39.881Z,16.17
2023-01-25T02:54:07.431Z,18.00
2023-01-25T02:56:34.954Z,17.37
2023-01-25T02:59:02.515Z,19.30
2023-01-25T03:01:30.102Z,16.80
2023-01-25T03:03:57.616Z,15.67
2023-01-25T03:06:25.231Z,18.90
2023-01-25T03:08:52.733Z,20.43
2023-01-25T03:11:20.269Z,19.07
2023-01-25T03:13:47.808Z,20.67
2023-01-25T03:16:15.456Z,21.67
2023-01-25T03:18:43.697Z,24.33
2023-01-25T03:21:13.910Z,21.90
2023-01-25T03:23:41.444Z,21.70
2023-01-25T03:26:09.768Z,19.90
2023-01-25T03:28:37.319Z,18.03
2023-01-25T03:31:04.917Z,17.10
2023-01-25T03:33:32.416Z,18.83
2023-01-25T03:35:59.955Z,17.70
2023-01-25T03:38:29.149Z,16.87
2023-01-25T03:40:56.651Z,18.77
2023-01-25T03:43:24.175Z,16.67
2023-01-25T03:45:58.517Z,18.03
2023-01-25T03:48:26.041Z,19.63
2023-01-25T03:50:53.592Z,17.20
2023-01-25T03:53:30.189Z,22.55
2023-01-25T03:56:00.421Z,21.83
2023-01-25T03:58:28.721Z,19.10
2023-01-25T04:00:56.399Z,18.80
2023-01-25T04:03:23.901Z,17.53
2023-01-25T04:05:52.202Z,18.73
2023-01-25T04:08:19.761Z,19.57
2023-01-25T04:10:53.260Z,18.37
2023-01-25T04:13:20.809Z,14.60
2023-01-25T04:15:49.138Z,21.53
2023-01-25T04:18:16.722Z,18.30
2023-01-25T04:20:44.207Z,19.87
2023-01-25T04:23:12.505Z,18.13
2023-01-25T04:25:40.036Z,21.20
2023-01-25T04:28:08.336Z,18.20
2023-01-25T04:30:35.934Z,19.30
2023-01-25T04:33:06.155Z,21.23
2023-01-25T04:35:33.689Z,19.63
2023-01-25T04:38:01.273Z,20.47
2023-01-25T04:40:28.844Z,25.80
2023-01-25T04:42:56.375Z,19.77
2023-01-25T04:45:23.940Z,21.63
2023-01-25T04:47:51.481Z,21.90
2023-01-25T04:50:19.035Z,23.70
2023-01-25T04:52:46.615Z,16.90
2023-01-25T04:55:14.147Z,22.70
2023-01-25T04:57:42.439Z,21.67
2023-01-25T05:00:11.026Z,16.43
2023-01-25T05:02:38.621Z,16.37
2023-01-25T05:05:06.245Z,16.57
2023-01-25T05:07:33.812Z,17.97
2023-01-25T05:10:01.340Z,20.00
2023-01-25T05:12:28.882Z,18.63
2023-01-25T05:14:57.235Z,17.50
2023-01-25T05:17:24.772Z,20.47
2023-01-25T05:19:52.299Z,22.98
2023-01-25T05:22:19.869Z,18.70
2023-01-25T05:24:47.402Z,18.80
2023-01-25T05:27:14.954Z,19.03
2023-01-25T05:29:43.313Z,18.87
2023-01-25T05:32:13.684Z,18.80
2023-01-25T05:34:41.220Z,19.90
2023-01-25T05:37:09.543Z,20.67
2023-01-25T05:39:37.086Z,18.53
2023-01-25T05:42:04.600Z,21.93
2023-01-25T05:44:32.933Z,20.23
2023-01-25T05:47:00.472Z,21.17
2023-01-25T05:49:28.008Z,21.43
2023-01-25T05:51:56.348Z,19.23
2023-01-25T05:54:23.895Z,20.17
2023-01-25T05:56:51.441Z,22.83
2023-01-25T05:59:19.297Z,20.93
2023-01-25T06:01:46.833Z,21.97
2023-01-25T06:04:17.250Z,21.87
2023-01-25T06:06:46.180Z,21.90
2023-01-25T06:09:13.735Z,22.20
2023-01-25T06:11:41.266Z,24.70
2023-01-25T06:14:09.782Z,21.77
2023-01-25T06:16:37.323Z,26.43
2023-01-25T06:19:08.030Z,19.67
2023-01-25T06:21:38.954Z,22.57
2023-01-25T06:24:06.573Z,21.47
2023-01-25T06:26:34.819Z,24.27
2023-01-25T06:29:02.425Z,21.00
2023-01-25T06:31:30.057Z,22.77
2023-01-25T06:33:57.672Z,21.03
2023-01-25T06:36:25.839Z,23.23
2023-01-25T06:38:53.377Z,21.37
2023-01-25T06:41:20.950Z,29.12
2023-01-25T06:43:48.487Z,24.10
2023-01-25T06:46:16.109Z,23.00
2023-01-25T06:48:43.550Z,24.13
2023-01-25T06:51:11.126Z,22.23
2023-01-25T06:53:38.685Z,23.37
2023-01-25T06:56:15.523Z,19.53
2023-01-25T06:58:43.053Z,20.47
2023-01-25T07:01:22.542Z,22.10
2023-01-25T07:03:49.960Z,19.80
2023-01-25T07:06:17.489Z,19.03
2023-01-25T07:08:45.815Z,19.10
2023-01-25T07:11:13.338Z,19.57
2023-01-25T07:13:40.887Z,22.48
2023-01-25T07:16:08.597Z,19.40
2023-01-25T07:18:39.160Z,17.03
2023-01-25T07:21:06.688Z,17.57
2023-01-25T07:23:34.257Z,17.10
2023-01-25T07:26:02.590Z,21.50
2023-01-25T07:28:30.119Z,19.97
2023-01-25T07:30:57.685Z,17.77
2023-01-25T07:33:25.217Z,24.77
2023-01-25T07:35:53.560Z,25.25
2023-01-25T07:38:21.107Z,21.03
2023-01-25T07:40:51.653Z,18.07
2023-01-25T07:43:19.175Z,17.90
2023-01-25T07:45:46.759Z,19.55
2023-01-25T07:48:14.306Z,20.80
2023-01-25T07:50:41.845Z,21.83
2023-01-25T07:53:09.413Z,17.33
2023-01-25T07:55:36.953Z,15.57
2023-01-25T07:58:04.482Z,16.83
2023-01-25T08:00:32.049Z,16.00
2023-01-25T08:03:00.349Z,15.20
2023-01-25T08:05:27.884Z,16.30
2023-01-25T08:07:56.226Z,17.87
2023-01-25T08:10:23.779Z,21.65
2023-01-25T08:12:51.310Z,15.67
2023-01-25T08:15:18.886Z,15.77
2023-01-25T08:17:46.443Z,14.33
2023-01-25T08:20:13.975Z,13.90
2023-01-25T08:22:42.297Z,16.07
2023-01-25T08:25:10.133Z,16.50
2023-01-25T08:27:37.364Z,18.33
2023-01-25T08:30:05.812Z,20.00
2023-01-25T08:32:33.347Z,14.13
2023-01-25T08:35:00.866Z,19.73
2023-01-25T08:37:28.462Z,17.90
2023-01-25T08:39:55.977Z,16.10
2023-01-25T08:42:24.304Z,16.07
2023-01-25T08:44:51.899Z,17.93
2023-01-25T08:47:19.427Z,18.53
2023-01-25T08:49:46.964Z,17.33
2023-01-25T08:52:14.537Z,16.13
2023-01-25T08:54:44.530Z,17.60
2023-01-25T08:57:12.074Z,14.37
2023-01-25T08:59:39.674Z,15.77
2023-01-25T09:02:07.171Z,19.33
2023-01-25T09:04:35.472Z,14.80
2023-01-25T09:07:03.160Z,17.27
2023-01-25T09:09:30.706Z,20.53
2023-01-25T09:11:58.230Z,21.13
2023-01-25T09:14:26.585Z,21.47
2023-01-25T09:16:54.123Z,17.87
2023-01-25T09:19:21.632Z,18.87
2023-01-25T09:21:50.238Z,15.87
2023-01-25T09:24:18.923Z,14.73
2023-01-25T09:26:55.899Z,15.27
2023-01-25T09:29:15.525Z,16.93
2023-01-25T09:31:45.834Z,19.30
2023-01-25T09:34:13.297Z,16.73
2023-01-25T09:36:40.841Z,15.47
2023-01-25T09:39:08.377Z,21.27
2023-01-25T09:42:14.998Z,18.40
2023-01-25T09:44:42.844Z,18.20
2023-01-25T09:47:41.097Z,20.77
2023-01-25T09:50:32.918Z,17.87
2023-01-25T09:53:09.267Z,18.37
2023-01-25T09:55:37.591Z,22.27
2023-01-25T09:58:05.112Z,16.73
2023-01-25T10:00:32.724Z,18.63
2023-01-25T10:03:06.122Z,17.00
2023-01-25T10:05:33.570Z,18.87
2023-01-25T10:08:07.145Z,24.87
2023-01-25T10:10:41.241Z,22.25
2023-01-25T10:13:13.576Z,19.17
2023-01-25T10:15:41.132Z,18.05
2023-01-25T10:18:32.943Z,18.50
2023-01-25T10:21:08.951Z,14.77
2023-01-25T10:23:48.380Z,15.20
2023-01-25T10:26:28.080Z,16.93
2023-01-25T10:29:01.111Z,16.67
2023-01-25T10:31:41.446Z,20.92
2023-01-25T10:34:20.730Z,17.10
2023-01-25T10:36:48.278Z,18.47
2023-01-25T10:39:15.860Z,20.23
2023-01-25T10:41:43.446Z,16.53
2023-01-25T10:44:22.326Z,20.07
2023-01-25T10:46:50.801Z,15.43
2023-01-25T10:49:37.077Z,17.17
2023-01-25T10:52:17.410Z,15.13
2023-01-25T10:54:44.926Z,15.50
2023-01-25T10:57:12.461Z,14.63
2023-01-25T10:59:40.818Z,15.17
2023-01-25T11:02:35.688Z,18.37
2023-01-25T11:05:24.514Z,18.27
2023-01-25T11:07:52.788Z,18.80
2023-01-25T11:10:20.332Z,17.23
2023-01-25T11:12:47.932Z,16.27
2023-01-25T11:15:24.531Z,15.57
2023-01-25T11:17:52.055Z,15.03
2023-01-25T11:20:19.614Z,18.00
2023-01-25T11:22:55.598Z,17.60
2023-01-25T11:25:29.376Z,14.20
2023-01-25T11:28:18.441Z,16.33
2023-01-25T11:30:46.058Z,17.53
2023-01-25T11:33:13.549Z,18.17
2023-01-25T11:35:56.169Z,14.73
2023-01-25T11:38:23.722Z,18.50
2023-01-25T11:40:59.986Z,17.70
2023-01-25T11:43:33.707Z,19.27
2023-01-25T11:46:10.414Z,16.47
2023-01-25T11:48:53.020Z,17.33
2023-01-25T11:51:20.544Z,14.17
2023-01-25T11:54:06.933Z,17.10
2023-01-25T11:56:36.976Z,15.20
2023-01-25T11:59:22.370Z,17.30
2023-01-25T12:01:55.396Z,16.70
2023-01-25T12:04:50.269Z,17.43
2023-01-25T12:07:17.798Z,16.53
2023-01-25T12:09:47.891Z,17.70
2023-01-25T12:12:16.209Z,16.27
2023-01-25T12:14:49.412Z,13.77
2023-01-25T12:17:16.935Z,18.37
2023-01-25T12:20:02.586Z,17.03
2023-01-25T12:22:38.960Z,15.43
2023-01-25T12:25:30.607Z,11.83
2023-01-25T12:28:13.085Z,13.90
2023-01-25T12:31:02.360Z,16.87
2023-01-25T12:33:32.550Z,16.10
2023-01-25T12:36:12.129Z,18.27
2023-01-25T12:39:03.993Z,21.00
2023-01-25T12:41:40.144Z,15.10
2023-01-25T12:44:22.691Z,13.70
2023-01-25T12:46:56.923Z,14.38
2023-01-25T12:49:48.954Z,15.33
2023-01-25T12:52:32.064Z,15.20
2023-01-25T12:55:02.389Z,14.50
2023-01-25T12:57:44.536Z,13.93
2023-01-25T13:00:23.996Z,16.58
2023-01-25T13:02:57.012Z,12.27
2023-01-25T13:05:33.360Z,12.17
2023-01-25T13:08:06.837Z,11.27
2023-01-25T13:10:34.374Z,13.62
2023-01-25T13:13:01.920Z,12.10
2023-01-25T13:15:41.535Z,10.57
2023-01-25T13:18:25.181Z,11.40
2023-01-25T13:20:53.577Z,11.43
2023-01-25T13:23:36.112Z,14.03
2023-01-25T13:26:22.401Z,14.33
2023-01-25T13:28:52.763Z,14.47
2023-01-25T13:31:51.089Z,15.30
2023-01-25T13:34:11.289Z,15.68
2023-01-25T13:36:41.630Z,14.63
2023-01-25T13:39:32.956Z,14.13
2023-01-25T13:42:00.524Z,12.90
2023-01-25T13:44:30.701Z,14.50
2023-01-25T13:46:58.262Z,16.85
2023-01-25T13:49:25.893Z,18.37
2023-01-25T13:51:54.201Z,16.03
2023-01-25T13:54:21.736Z,12.83
2023-01-25T13:56:50.081Z,13.57
2023-01-25T13:59:26.391Z,14.07
2023-01-25T14:01:53.954Z,17.70
2023-01-25T14:04:22.226Z,12.67
2023-01-25T14:06:49.755Z,14.03
2023-01-25T14:09:17.360Z,20.20
2023-01-25T14:11:50.646Z,15.57
2023-01-25T14:14:27.324Z,13.67
2023-01-25T14:17:16.366Z,15.83
2023-01-25T14:19:46.674Z,13.37
2023-01-25T14:22:25.865Z,13.50
2023-01-25T14:25:05.535Z,14.13
2023-01-25T14:27:33.070Z,13.37
2023-01-25T14:30:00.608Z,14.03
2023-01-25T14:32:28.177Z,14.80
2023-01-25T14:34:55.735Z,13.33
2023-01-25T14:37:23.254Z,12.67
2023-01-25T14:39:51.606Z,15.77
2023-01-25T14:42:19.143Z,12.53
2023-01-25T14:44:46.668Z,12.30
2023-01-25T14:47:20.327Z,13.27
2023-01-25T14:49:47.890Z,12.67
2023-01-25T14:52:15.383Z,14.30
2023-01-25T14:54:48.491Z,14.63
2023-01-25T14:57:28.010Z,16.27
2023-01-25T14:59:55.588Z,14.00
2023-01-25T15:02:26.061Z,12.67
2023-01-25T15:05:04.854Z,14.47
2023-01-25T15:07:44.998Z,15.10
2023-01-25T15:10:25.302Z,14.53
2023-01-25T15:13:13.724Z,14.17
2023-01-25T15:15:32.969Z,14.83
2023-01-25T15:18:00.520Z,16.80
2023-01-25T15:20:30.915Z,14.43
2023-01-25T15:23:02.194Z,13.73
2023-01-25T15:25:29.750Z,15.53
2023-01-25T15:27:57.313Z,12.33
2023-01-25T15:30:24.863Z,12.30
2023-01-25T15:32:53.133Z,15.10
2023-01-25T15:35:20.721Z,16.20
2023-01-25T15:37:49.396Z,13.90
2023-01-25T15:40:15.768Z,17.27
2023-01-25T15:42:43.389Z,17.83
2023-01-25T15:45:11.044Z,14.93
2023-01-25T15:47:38.594Z,14.20
2023-01-25T15:50:06.313Z,18.40
2023-01-25T15:52:33.832Z,14.63
2023-01-25T15:55:02.396Z,11.93
2023-01-25T15:57:28.973Z,15.07
2023-01-25T15:59:56.507Z,14.83
2023-01-25T16:02:24.111Z,14.77
2023-01-25T16:04:51.639Z,13.73
2023-01-25T16:07:21.830Z,13.60
2023-01-25T16:09:49.355Z,14.87
2023-01-25T16:12:17.974Z,14.33
2023-01-25T16:14:45.519Z,13.60
2023-01-25T16:17:16.776Z,11.97
2023-01-25T16:19:44.349Z,12.47
2023-01-25T16:22:11.888Z,11.83
2023-01-25T16:24:39.685Z,15.20
2023-01-25T16:27:07.759Z,13.73
2023-01-25T16:29:35.286Z,15.60
2023-01-25T16:32:02.881Z,14.57
2023-01-25T16:34:30.537Z,18.37
2023-01-25T16:36:58.067Z,18.03
2023-01-25T16:39:25.691Z,16.23
2023-01-25T16:41:53.950Z,17.37
2023-01-25T16:44:21.483Z,14.17
2023-01-25T16:46:49.125Z,15.30
2023-01-25T16:49:22.669Z,17.17
2023-01-25T16:51:50.200Z,14.77
2023-01-25T16:54:17.744Z,14.90
2023-01-25T16:56:45.285Z,16.90
2023-01-25T16:59:13.595Z,14.47
2023-01-25T17:01:41.177Z,14.60
2023-01-25T17:04:08.705Z,16.10
2023-01-25T17:06:36.231Z,20.10
2023-01-25T17:09:20.624Z,20.30
2023-01-25T17:11:32.127Z,17.07
2023-01-25T17:13:59.660Z,16.33
2023-01-25T17:16:27.196Z,18.27
2023-01-25T17:18:54.805Z,16.00
2023-01-25T17:21:22.338Z,17.47
2023-01-25T17:23:49.919Z,15.27
2023-01-25T17:26:17.463Z,12.30
2023-01-25T17:28:44.975Z,13.90
2023-01-25T17:31:19.350Z,16.07
2023-01-25T17:33:47.926Z,17.03
2023-01-25T17:36:15.532Z,27.17
2023-01-25T17:38:43.071Z,23.87
2023-01-25T17:41:11.020Z,29.30
2023-01-25T17:43:38.528Z,25.37
2023-01-25T17:46:12.581Z,25.43
2023-01-25T17:48:40.877Z,33.43
2023-01-25T17:51:08.410Z,34.63
2023-01-25T17:53:35.958Z,30.23
2023-01-25T17:56:03.528Z,26.30
2023-01-25T17:58:31.065Z,27.93
2023-01-25T18:01:12.586Z,24.77
2023-01-25T18:03:26.495Z,31.43
2023-01-25T18:05:57.008Z,52.07
2023-01-25T18:08:25.287Z,30.67
2023-01-25T18:10:52.863Z,24.93
2023-01-25T18:13:20.438Z,28.73
2023-01-25T18:15:48.739Z,23.30
2023-01-25T18:18:16.284Z,33.17
2023-01-25T18:20:43.831Z,26.60
2023-01-25T18:23:11.378Z,57.50
2023-01-25T18:25:38.958Z,50.73
2023-01-25T18:28:06.503Z,26.33
2023-01-25T18:30:37.264Z,27.00
2023-01-25T18:33:04.780Z,27.60
2023-01-25T18:35:33.087Z,28.40
2023-01-25T18:38:00.626Z,40.50
2023-01-25T18:40:28.219Z,30.63
2023-01-25T18:42:55.743Z,59.83
2023-01-25T18:45:23.263Z,34.33
2023-01-25T18:47:50.843Z,46.57
2023-01-25T18:50:18.385Z,43.77
2023-01-25T18:52:46.678Z,30.33
2023-01-25T18:55:14.247Z,22.20
2023-01-25T18:57:41.812Z,26.40
2023-01-25T19:00:09.455Z,23.90
2023-01-25T19:02:37.926Z,21.90
2023-01-25T19:05:05.397Z,29.57
2023-01-25T19:07:32.921Z,47.97
2023-01-25T19:10:00.524Z,38.57
2023-01-25T19:12:28.070Z,30.20
2023-01-25T19:14:56.370Z,25.07
2023-01-25T19:17:23.934Z,22.37
2023-01-25T19:19:51.456Z,25.90
2023-01-25T19:22:19.749Z,25.53
2023-01-25T19:24:47.351Z,25.30
2023-01-25T19:27:14.866Z,26.63
2023-01-25T19:29:43.155Z,22.93
2023-01-25T19:32:10.771Z,22.40
2023-01-25T19:34:38.311Z,23.93
2023-01-25T19:37:05.835Z,16.87
2023-01-25T19:39:33.441Z,22.33
2023-01-25T19:42:00.978Z,15.23
2023-01-25T19:44:28.513Z,17.02
2023-01-25T19:46:56.075Z,15.47
2023-01-25T19:49:23.603Z,19.33
2023-01-25T19:51:51.908Z,13.03
2023-01-25T19:54:19.769Z,18.47
2023-01-25T19:56:47.308Z,15.70
2023-01-25T19:59:18.332Z,12.03
2023-01-25T20:01:45.971Z,10.57
2023-01-25T20:04:13.460Z,15.33
2023-01-25T20:06:41.761Z,12.50
2023-01-25T20:09:09.948Z,13.90
2023-01-25T20:11:37.469Z,13.17
2023-01-25T20:14:05.751Z,19.77
2023-01-25T20:16:34.109Z,12.87
2023-01-25T20:19:01.649Z,14.97
2023-01-25T20:21:29.184Z,12.23
2023-01-25T20:23:56.784Z,10.73
2023-01-25T20:26:24.588Z,12.77
2023-01-25T20:28:52.118Z,17.43
2023-01-25T20:31:29.245Z,13.23
2023-01-25T20:33:56.722Z,11.07
2023-01-25T20:36:24.231Z,14.37
2023-01-25T20:38:52.585Z,10.63
2023-01-25T20:41:20.107Z,10.70
2023-01-25T20:43:50.369Z,11.80
2023-01-25T20:46:17.950Z,11.77
2023-01-25T20:48:45.465Z,13.57
2023-01-25T20:51:15.929Z,11.23
2023-01-25T20:53:43.486Z,11.70
2023-01-25T20:56:11.008Z,11.90
2023-01-25T20:58:38.552Z,13.20
2023-01-25T21:01:06.145Z,15.80
2023-01-25T21:03:33.670Z,12.43
2023-01-25T21:06:01.203Z,14.13
2023-01-25T21:08:28.776Z,15.70
2023-01-25T21:10:56.317Z,14.20
2023-01-25T21:13:23.851Z,11.93
2023-01-25T21:16:06.577Z,13.57
2023-01-25T21:18:34.090Z,11.43
2023-01-25T21:21:01.642Z,11.20
2023-01-25T21:23:29.191Z,11.90
2023-01-25T21:25:56.757Z,14.40
2023-01-25T21:28:24.285Z,13.50
2023-01-25T21:30:51.902Z,11.97
2023-01-25T21:33:19.433Z,11.90
2023-01-25T21:35:46.951Z,13.93
2023-01-25T21:38:15.674Z,11.60
2023-01-25T21:40:43.199Z,13.07
2023-01-25T21:43:10.734Z,11.90
2023-01-25T21:45:57.302Z,13.20
2023-01-25T21:48:43.088Z,14.10
2023-01-25T21:51:31.165Z,15.07
2023-01-25T21:53:58.687Z,12.87
2023-01-25T21:56:26.235Z,10.27
2023-01-25T21:58:53.836Z,15.40
2023-01-25T22:01:21.379Z,13.57
2023-01-25T22:03:51.648Z,13.20
2023-01-25T22:06:20.000Z,14.03
2023-01-25T22:08:47.557Z,12.73
2023-01-25T22:11:15.063Z,15.05
2023-01-25T22:13:42.639Z,14.27
2023-01-25T22:16:10.177Z,12.27
2023-01-25T22:18:38.454Z,14.83
2023-01-25T22:21:06.009Z,18.27
2023-01-25T22:23:33.533Z,14.73
2023-01-25T22:26:04.645Z,16.90
2023-01-25T22:28:47.744Z,12.87
2023-01-25T22:31:15.329Z,14.80
2023-01-25T22:33:43.587Z,12.33
2023-01-25T22:36:11.177Z,11.43
2023-01-25T22:38:38.710Z,13.63
2023-01-25T22:41:09.252Z,15.57
2023-01-25T22:43:36.829Z,13.67
2023-01-25T22:46:04.353Z,15.13
2023-01-25T22:51:11.258Z,15.97
2023-01-25T22:53:38.811Z,22.60
2023-01-25T22:56:06.465Z,18.03
2023-01-25T22:58:34.043Z,25.17
2023-01-25T23:01:01.571Z,17.77
2023-01-25T23:03:29.148Z,14.90
2023-01-25T23:06:03.103Z,17.73
2023-01-25T23:08:32.835Z,14.03
2023-01-25T23:11:01.261Z,14.43
2023-01-25T23:13:28.825Z,14.80
2023-01-25T23:15:56.384Z,20.83
2023-01-25T23:18:41.883Z,18.40
2023-01-25T23:21:09.408Z,20.63
2023-01-25T23:23:36.939Z,19.23
2023-01-25T23:26:04.525Z,26.20
2023-01-25T23:28:32.054Z,15.83
2023-01-25T23:31:11.527Z,23.30
2023-01-25T23:33:38.851Z,20.53
2023-01-25T23:36:09.377Z,27.30
2023-01-25T23:38:36.951Z,20.50
2023-01-25T23:41:04.465Z,19.93
2023-01-25T23:43:32.760Z,23.93
2023-01-25T23:46:01.143Z,15.23
2023-01-25T23:48:28.637Z,38.67
2023-01-25T23:50:56.170Z,28.83
2023-01-25T23:53:23.744Z,27.07
2023-01-25T23:55:56.723Z,17.53
2023-01-25T23:58:24.254Z,18.00
